Pagrindinis puslapis
METAR-TAF:

METAR-TAF

Oro uostai :

Voronežas, Rusija

platuma: 51-39N, ilguma: 039-15E, Aukštis: 154 m

Dabartinis oras

Ataskaita buvo paskelbta 26 minutes, ne 16:00 UTC
Vėjas 8 kt iš Pietų/Pietvakarių
Temperatūra 4°C
Drėgmė 81%
Slėgis 1013 hPa
Matomumas 10 km arba daugiau
Su prošvaistėmis ne aukštis 1900 ft

METAR: UUOO 071600Z 20004MPS 9999 BKN019 04/01 Q1013 R12/090060 NOSIG RMK QFE746

Laikas: 19:26 (16:26 UTC)

Prognozė

Ataskaita buvo paskelbta 2 valandos ir 27 minutes, ne 13:59 UTC
Prognozė galioja nuo 07 metu 15 UTC su 07 metu 24 UTC
Vėjas 10 kt iš Pietų
Matomumas 10 km arba daugiau
Išsisklaidę debesys ne aukštis 3000 ft

TAF: UUOO 071359Z 0715/0724 19005MPS 9999 SCT030

Orai ataskaitas ir orų prognozės (METAR, TAF).

turimą stotys yra geltonos ir raudonos taškus žemėlapyje.

Perkelti pele per norėdami pamatyti stoties vardą.

Tada spustelėkite, norėdami matyti oro stebėjimo ir prognozės.

Norėdami pakeisti žemėlapį: spustelėkite ant žalios mygtukų su juodo kryžiaus žemyn,; žalią mygtuką su brūkšneliu, jei norite nutolinti; arba žalių rodyklių gretimoms žemėlapius.


METAR-TAF: